Portada
METAR-TAF:

METAR-TAF

Aeroports :

Dakar, Senegal

latitud: 14-44N, longitud: 017-30W, altitud: 27 m

Observació

L'informe es va fer fa 1 hora i 3 minuts, a les 13:00 UTC
Vent 8 kt del Nord-Est
Temperatura 26°C
Humitat 51%
Pressió 1010 hPa
Visibilitat: 4000 m
Pols estès

METAR: GOOY 201300Z 04008KT 4000 DU NSC 26/15 Q1010

Hora: 14:03 (14:03 UTC)

Pronòstic

L'informe es va fer fa 2 hores i 42 minuts, a les 11:21 UTC
Pronòstic vàlid del 20 a les 12 UTC al 21 a les 18 UTC
Vent 8 kt del Nord-Est
Visibilitat: 8000 m

TAF: GOOY 201121Z 2012/2118 04008KT 8000 NSC

Observacions i pronòstics meteorològics de més de 4000 aeroports (METAR i TAF).

Les estacions disponibles són els punts grocs i vermells al mapa.

Posi el ratolí al punt desitjat per veure el nom de l'estació.

Feu clic per veure les observacions i els pronòstics meteorològics.

Per canviar el mapa: feu clic els botons verds amb una creu de color negre per apropar; al botó verd amb un guió per allunyar la imatge; o en les fletxes verdes per a mapes adjacents.


METAR-TAF: